Terminal Aerodrome Forecast
Issued by NWS

Home | Current Version | Previous Version | Text Only | Print | Product List | Glossary On
Versions: 1 2 3 4 5 6 7 8 9 10 11 12 13 14 15 16 17 18
000
FTUS43 KMPX 110022 CCA
TAFAXN
TAF COR
KAXN 110022Z 1100/1124 11007KT 2SM -SN OVC035
     FM110500 10012KT 1 1/2SM -SN BKN007 OVC012
     FM110800 09011KT 1SM -SN OVC007
     FM111500 09007KT 2SM -SN SCT007 OVC015
     FM112000 34005KT P6SM OVC015=

USA.gov is the U.S. government's official web portal to all federal, state and local government web resources and services.